createdAt,value
2017-08-03T00:00:11.937Z,7.53
2017-08-03T00:02:39.618Z,9.17
2017-08-03T00:05:07.361Z,9.53
2017-08-03T00:07:35.128Z,7.70
2017-08-03T00:10:02.895Z,8.73
2017-08-03T00:12:30.576Z,10.53
2017-08-03T00:14:58.214Z,8.70
2017-08-03T00:17:25.983Z,7.90
2017-08-03T00:19:53.744Z,6.10
2017-08-03T00:22:21.508Z,7.73
2017-08-03T00:24:49.149Z,8.37
2017-08-03T00:27:16.807Z,10.83
2017-08-03T00:29:44.595Z,8.40
2017-08-03T00:32:12.276Z,7.10
2017-08-03T00:34:39.944Z,6.10
2017-08-03T00:37:07.789Z,6.77
2017-08-03T00:39:35.553Z,8.50
2017-08-03T00:42:03.421Z,6.13
2017-08-03T00:44:31.055Z,7.17
2017-08-03T00:46:58.758Z,6.27
2017-08-03T00:49:26.527Z,5.60
2017-08-03T00:51:54.270Z,6.03
2017-08-03T00:54:22.142Z,5.07
2017-08-03T00:56:49.799Z,9.40
2017-08-03T00:59:17.467Z,7.60
2017-08-03T01:01:45.225Z,7.93
2017-08-03T01:04:12.990Z,8.63
2017-08-03T01:06:40.777Z,7.13
2017-08-03T01:09:09.338Z,7.27
2017-08-03T01:11:37.206Z,7.67
2017-08-03T01:14:04.967Z,8.17
2017-08-03T01:16:32.734Z,7.37
2017-08-03T01:19:00.497Z,7.00
2017-08-03T01:21:28.156Z,9.73
2017-08-03T01:23:56.541Z,8.43
2017-08-03T01:26:24.230Z,8.07
2017-08-03T01:28:51.963Z,8.00
2017-08-03T01:31:19.593Z,8.13
2017-08-03T01:33:47.317Z,9.80
2017-08-03T01:36:14.976Z,6.60
2017-08-03T01:38:42.712Z,7.40
2017-08-03T01:41:10.397Z,5.83
2017-08-03T01:43:38.248Z,7.60
2017-08-03T01:46:06.005Z,7.10
2017-08-03T01:48:33.772Z,6.27
2017-08-03T01:51:01.535Z,5.20
2017-08-03T01:53:29.199Z,8.43
2017-08-03T01:55:56.962Z,7.83
2017-08-03T01:58:24.636Z,7.27
2017-08-03T02:00:52.308Z,7.73
2017-08-03T02:03:20.049Z,9.40
2017-08-03T02:05:47.736Z,7.40
2017-08-03T02:08:15.476Z,7.77
2017-08-03T02:10:43.239Z,6.80
2017-08-03T02:13:11.003Z,7.23
2017-08-03T02:15:38.767Z,6.53
2017-08-03T02:18:06.453Z,6.80
2017-08-03T02:20:34.295Z,7.63
2017-08-03T02:23:02.059Z,9.67
2017-08-03T02:25:29.824Z,6.07
2017-08-03T02:27:57.588Z,6.60
2017-08-03T02:30:25.361Z,7.90
2017-08-03T02:32:53.041Z,10.20
2017-08-03T02:35:20.778Z,6.67
2017-08-03T02:37:48.418Z,6.00
2017-08-03T02:40:16.099Z,7.00
2017-08-03T02:42:43.735Z,5.93
2017-08-03T02:45:11.531Z,6.07
2017-08-03T02:47:39.312Z,8.60
2017-08-03T02:50:07.059Z,5.93
2017-08-03T02:52:34.740Z,9.27
2017-08-03T02:55:02.586Z,8.20
2017-08-03T02:57:30.354Z,8.70
2017-08-03T02:59:58.114Z,7.47
2017-08-03T03:02:25.879Z,6.03
2017-08-03T03:04:53.543Z,4.63
2017-08-03T03:07:21.307Z,6.10
2017-08-03T03:09:49.069Z,4.30
2017-08-03T03:12:16.834Z,5.97
2017-08-03T03:14:44.538Z,6.20
2017-08-03T03:17:13.081Z,5.00
2017-08-03T03:19:40.755Z,4.73
2017-08-03T03:22:08.420Z,6.70
2017-08-03T03:24:36.270Z,8.90
2017-08-03T03:27:03.899Z,5.17
2017-08-03T03:29:31.695Z,5.23
2017-08-03T03:31:59.376Z,6.97
2017-08-03T03:34:27.048Z,8.40
2017-08-03T03:36:54.786Z,7.27
2017-08-03T03:39:22.653Z,7.33
2017-08-03T03:41:50.418Z,6.80
2017-08-03T03:44:18.081Z,7.10
2017-08-03T03:46:45.842Z,6.37
2017-08-03T03:49:13.608Z,8.00
2017-08-03T03:51:41.373Z,5.50
2017-08-03T03:54:09.181Z,5.80
2017-08-03T03:56:37.718Z,4.77
2017-08-03T03:59:05.407Z,9.23
2017-08-03T04:01:33.247Z,5.13
2017-08-03T04:04:01.008Z,5.57
2017-08-03T04:06:28.775Z,6.60
2017-08-03T04:08:56.642Z,6.20
2017-08-03T04:11:24.320Z,7.53
2017-08-03T04:13:51.983Z,4.10
2017-08-03T04:16:19.652Z,5.50
2017-08-03T04:18:47.306Z,6.20
2017-08-03T04:21:15.053Z,11.30
2017-08-03T04:23:42.923Z,5.03
2017-08-03T04:26:10.690Z,4.90
2017-08-03T04:28:38.319Z,5.03
2017-08-03T04:31:06.009Z,5.97
2017-08-03T04:33:33.771Z,6.77
2017-08-03T04:36:01.456Z,8.83
2017-08-03T04:38:29.197Z,6.67
2017-08-03T04:40:56.881Z,7.67
2017-08-03T04:43:24.519Z,5.20
2017-08-03T04:45:52.309Z,9.90
2017-08-03T04:48:20.050Z,9.53
2017-08-03T04:50:47.737Z,5.80
2017-08-03T04:53:15.511Z,5.43
2017-08-03T04:55:44.063Z,5.63
2017-08-03T04:58:11.698Z,12.57
2017-08-03T05:00:39.380Z,9.67
2017-08-03T05:03:07.047Z,15.77
2017-08-03T05:05:34.812Z,8.30
2017-08-03T05:08:02.574Z,13.03
2017-08-03T05:10:30.340Z,9.20
2017-08-03T05:12:58.103Z,12.60
2017-08-03T05:15:25.971Z,8.73
2017-08-03T05:17:53.734Z,11.97
2017-08-03T05:20:21.430Z,13.77
2017-08-03T05:22:49.916Z,12.53
2017-08-03T05:25:18.322Z,8.80
2017-08-03T05:27:46.124Z,9.50
2017-08-03T05:30:14.298Z,8.90
2017-08-03T05:32:42.062Z,9.13
2017-08-03T05:35:09.718Z,11.17
2017-08-03T05:37:37.383Z,5.57
2017-08-03T05:40:05.148Z,7.27
2017-08-03T05:42:32.910Z,7.90
2017-08-03T05:45:00.778Z,9.40
2017-08-03T05:47:28.543Z,10.13
2017-08-03T05:49:56.307Z,6.97
2017-08-03T05:52:24.180Z,8.10
2017-08-03T05:54:52.677Z,10.60
2017-08-03T05:57:20.342Z,9.10
2017-08-03T05:59:48.081Z,7.23
2017-08-03T06:02:15.715Z,7.43
2017-08-03T06:04:43.539Z,8.23
2017-08-03T06:07:11.374Z,5.50
2017-08-03T06:09:39.137Z,6.10
2017-08-03T06:12:06.903Z,9.13
2017-08-03T06:14:34.667Z,6.60
2017-08-03T06:17:02.432Z,6.77
2017-08-03T06:19:30.194Z,9.27
2017-08-03T06:21:57.875Z,11.03
2017-08-03T06:24:25.544Z,10.60
2017-08-03T06:26:53.288Z,8.20
2017-08-03T06:29:20.959Z,7.40
2017-08-03T06:31:48.711Z,8.03
2017-08-03T06:34:16.476Z,7.00
2017-08-03T06:36:44.339Z,6.63
2017-08-03T06:39:12.104Z,8.97
2017-08-03T06:41:39.869Z,7.73
2017-08-03T06:44:07.737Z,6.03
2017-08-03T06:46:35.501Z,15.03
2017-08-03T06:49:03.189Z,9.37
2017-08-03T06:51:30.876Z,9.00
2017-08-03T06:53:59.408Z,10.73
2017-08-03T06:56:27.087Z,11.90
2017-08-03T06:58:54.939Z,8.33
2017-08-03T07:01:22.576Z,5.97
2017-08-03T07:03:50.362Z,12.10
2017-08-03T07:06:18.031Z,11.43
2017-08-03T07:08:45.709Z,15.10
2017-08-03T07:11:13.551Z,19.70
2017-08-03T07:13:41.335Z,9.30
2017-08-03T07:16:09.083Z,9.77
2017-08-03T07:18:36.949Z,6.10
2017-08-03T07:21:04.711Z,9.17
2017-08-03T07:23:32.347Z,6.30
2017-08-03T07:26:00.138Z,8.30
2017-08-03T07:28:27.902Z,8.90
2017-08-03T07:30:55.665Z,8.63
2017-08-03T07:33:23.533Z,10.40
2017-08-03T07:35:51.298Z,13.20
2017-08-03T07:38:18.931Z,6.90
2017-08-03T07:40:46.723Z,7.60
2017-08-03T07:43:14.486Z,8.07
2017-08-03T07:45:42.151Z,12.13
2017-08-03T07:48:10.018Z,11.80
2017-08-03T07:50:37.782Z,9.83
2017-08-03T07:53:05.466Z,14.30
2017-08-03T07:55:33.319Z,14.37
2017-08-03T07:58:00.996Z,13.73
2017-08-03T08:00:28.637Z,11.80
2017-08-03T08:02:56.303Z,11.33
2017-08-03T08:05:24.060Z,11.87
2017-08-03T08:07:51.744Z,12.60
2017-08-03T08:10:19.439Z,8.27
2017-08-03T08:12:47.184Z,11.30
2017-08-03T08:15:15.730Z,7.23
2017-08-03T08:17:43.407Z,13.60
2017-08-03T08:20:11.050Z,9.33
2017-08-03T08:22:38.819Z,9.10
2017-08-03T08:25:06.685Z,7.80
2017-08-03T08:27:34.369Z,8.63
2017-08-03T08:30:02.211Z,11.20
2017-08-03T08:32:29.977Z,11.70
2017-08-03T08:34:57.741Z,13.03
2017-08-03T08:37:26.427Z,9.63
2017-08-03T08:39:54.297Z,9.90
2017-08-03T08:42:21.976Z,13.90
2017-08-03T08:44:49.742Z,9.83
2017-08-03T08:47:17.587Z,6.40
2017-08-03T08:49:45.351Z,6.40
2017-08-03T08:52:13.118Z,8.03
2017-08-03T08:54:40.984Z,6.67
2017-08-03T08:57:08.667Z,9.70
2017-08-03T08:59:36.410Z,7.83
2017-08-03T09:02:04.277Z,6.70
2017-08-03T09:04:31.962Z,7.13
2017-08-03T09:06:59.659Z,10.33
2017-08-03T09:09:27.398Z,7.17
2017-08-03T09:11:55.902Z,5.60
2017-08-03T09:14:23.712Z,9.27
2017-08-03T09:16:51.476Z,5.33
2017-08-03T09:19:19.139Z,6.30
2017-08-03T09:21:46.933Z,7.30
2017-08-03T09:24:14.588Z,5.70
2017-08-03T09:26:42.327Z,5.63
2017-08-03T09:29:10.092Z,5.53
2017-08-03T09:31:37.855Z,8.73
2017-08-03T09:34:05.568Z,4.10
2017-08-03T09:36:34.510Z,7.03
2017-08-03T09:39:02.275Z,4.37
2017-08-03T09:41:29.940Z,7.40
2017-08-03T09:43:57.733Z,5.03
2017-08-03T09:46:25.486Z,8.20
2017-08-03T09:48:53.230Z,4.57
2017-08-03T09:51:21.098Z,5.20
2017-08-03T09:53:48.764Z,6.73
2017-08-03T09:56:16.447Z,4.47
2017-08-03T09:58:44.286Z,7.07
2017-08-03T10:01:11.947Z,6.47
2017-08-03T10:03:39.713Z,6.30
2017-08-03T10:06:07.477Z,5.30
2017-08-03T10:08:35.155Z,4.87
2017-08-03T10:11:02.903Z,4.23
2017-08-03T10:13:30.770Z,6.90
2017-08-03T10:15:58.535Z,6.20
2017-08-03T10:18:26.300Z,5.30
2017-08-03T10:20:54.065Z,5.70
2017-08-03T10:23:21.828Z,6.33
2017-08-03T10:25:49.468Z,5.33
2017-08-03T10:28:17.167Z,5.57
2017-08-03T10:30:44.837Z,5.93
2017-08-03T10:33:12.577Z,7.07
2017-08-03T10:35:40.446Z,5.53
2017-08-03T10:38:08.265Z,5.70
2017-08-03T10:40:36.122Z,7.50
2017-08-03T10:43:03.942Z,8.93
2017-08-03T10:45:31.811Z,4.57
2017-08-03T10:47:59.572Z,4.13
2017-08-03T10:50:27.440Z,4.60
2017-08-03T10:52:55.099Z,4.53
2017-08-03T10:55:22.783Z,7.77
2017-08-03T10:57:50.629Z,3.63
2017-08-03T11:00:18.293Z,4.73
2017-08-03T11:02:46.055Z,2.93
2017-08-03T11:05:13.922Z,3.60
2017-08-03T11:07:41.686Z,5.20
2017-08-03T11:10:09.354Z,4.73
2017-08-03T11:12:37.115Z,4.70
2017-08-03T11:15:04.878Z,5.17
2017-08-03T11:17:32.543Z,4.20
2017-08-03T11:20:00.235Z,3.73
2017-08-03T11:22:28.784Z,3.03
2017-08-03T11:24:56.653Z,3.57
2017-08-03T11:27:24.413Z,4.20
2017-08-03T11:29:52.080Z,3.80
2017-08-03T11:32:19.947Z,3.17
2017-08-03T11:34:47.616Z,6.03
2017-08-03T11:37:15.293Z,4.30
2017-08-03T11:39:43.132Z,3.67
2017-08-03T11:42:10.900Z,3.20
2017-08-03T11:44:38.567Z,7.10
2017-08-03T11:47:06.426Z,3.47
2017-08-03T11:49:34.193Z,3.70
2017-08-03T11:52:01.876Z,4.27
2017-08-03T11:54:29.652Z,4.30
2017-08-03T11:56:58.202Z,4.20
2017-08-03T11:59:25.966Z,3.50
2017-08-03T12:01:53.750Z,4.07
2017-08-03T12:04:21.410Z,6.77
2017-08-03T12:06:49.089Z,5.47
2017-08-03T12:09:16.853Z,4.50
2017-08-03T12:11:45.405Z,4.90
2017-08-03T12:14:13.172Z,3.50
2017-08-03T12:16:41.034Z,3.37
2017-08-03T12:19:08.657Z,3.30
2017-08-03T12:21:36.381Z,3.90
2017-08-03T12:24:04.139Z,3.50
2017-08-03T12:26:31.987Z,6.00
2017-08-03T12:28:59.679Z,3.87
2017-08-03T12:31:27.418Z,3.57
2017-08-03T12:33:55.452Z,3.47
2017-08-03T12:36:23.249Z,5.03
2017-08-03T12:38:51.129Z,4.30
2017-08-03T12:41:18.812Z,4.77
2017-08-03T12:43:46.646Z,3.60
2017-08-03T12:46:14.512Z,4.70
2017-08-03T12:48:42.275Z,4.90
2017-08-03T12:51:10.057Z,3.93
2017-08-03T12:53:37.905Z,4.33
2017-08-03T12:56:05.670Z,5.30
2017-08-03T12:58:33.358Z,4.43
2017-08-03T13:01:01.216Z,4.30
2017-08-03T13:03:28.962Z,3.83
2017-08-03T13:05:58.999Z,6.30
2017-08-03T13:08:26.949Z,7.23
2017-08-03T13:10:54.714Z,3.40
2017-08-03T13:13:22.396Z,3.83
2017-08-03T13:15:50.242Z,5.27
2017-08-03T13:18:17.902Z,4.73
2017-08-03T13:20:45.668Z,4.20
2017-08-03T13:23:13.538Z,5.47
2017-08-03T13:25:41.302Z,2.97
2017-08-03T13:28:08.964Z,3.50
2017-08-03T13:30:36.827Z,2.67
2017-08-03T13:33:04.532Z,2.70
2017-08-03T13:35:32.286Z,3.53
2017-08-03T13:38:00.835Z,2.03
2017-08-03T13:40:28.600Z,2.00
2017-08-03T13:42:56.370Z,2.93
2017-08-03T13:45:24.231Z,4.70
2017-08-03T13:47:51.995Z,3.87
2017-08-03T13:50:19.636Z,2.10
2017-08-03T13:52:47.343Z,2.27
2017-08-03T13:55:15.081Z,2.10
2017-08-03T13:57:42.847Z,4.93
2017-08-03T14:00:10.716Z,2.77
2017-08-03T14:02:38.344Z,2.13
2017-08-03T14:05:06.040Z,3.23
2017-08-03T14:07:33.904Z,3.23
2017-08-03T14:10:01.566Z,2.43
2017-08-03T14:12:29.329Z,2.50
2017-08-03T14:14:57.199Z,1.90
2017-08-03T14:17:24.888Z,2.60
2017-08-03T14:19:52.624Z,3.30
2017-08-03T14:22:20.422Z,2.50
2017-08-03T14:24:48.902Z,2.27
2017-08-03T14:27:16.736Z,3.10
2017-08-03T14:29:44.498Z,2.10
2017-08-03T14:32:12.265Z,2.30
2017-08-03T14:34:40.030Z,2.07
2017-08-03T14:37:07.694Z,3.03
2017-08-03T14:39:35.456Z,2.10
2017-08-03T14:42:03.219Z,2.20
2017-08-03T14:44:30.984Z,3.83
2017-08-03T14:46:58.752Z,1.90
2017-08-03T14:49:26.514Z,2.60
2017-08-03T14:51:54.376Z,2.83
2017-08-03T14:54:22.144Z,3.60
2017-08-03T14:56:49.909Z,7.10
2017-08-03T14:59:17.585Z,2.17
2017-08-03T15:01:45.333Z,2.50
2017-08-03T15:04:13.026Z,2.43
2017-08-03T15:06:40.866Z,1.70
2017-08-03T15:09:08.627Z,1.60
2017-08-03T15:11:36.389Z,2.50
2017-08-03T15:14:04.154Z,1.37
2017-08-03T15:16:31.815Z,1.37
2017-08-03T15:18:59.580Z,8.60
2017-08-03T15:21:27.269Z,1.13
2017-08-03T15:23:55.024Z,1.60
2017-08-03T15:26:22.872Z,1.27
2017-08-03T15:28:50.561Z,1.20
2017-08-03T15:31:18.230Z,1.30
2017-08-03T15:33:46.066Z,2.63
2017-08-03T15:36:13.712Z,2.07
2017-08-03T15:38:41.491Z,1.40
2017-08-03T15:41:09.357Z,1.10
2017-08-03T15:43:37.123Z,1.80
2017-08-03T15:46:04.885Z,1.77
2017-08-03T15:48:32.648Z,1.47
2017-08-03T15:51:00.418Z,1.93
2017-08-03T15:53:28.096Z,1.93
2017-08-03T15:55:55.941Z,2.50
2017-08-03T15:58:23.562Z,1.80
2017-08-03T16:00:51.370Z,1.57
2017-08-03T16:03:19.047Z,2.03
2017-08-03T16:05:46.676Z,1.67
2017-08-03T16:08:14.375Z,1.30
2017-08-03T16:10:42.224Z,1.60
2017-08-03T16:13:09.985Z,4.53
2017-08-03T16:15:37.868Z,2.97
2017-08-03T16:18:05.644Z,1.60
2017-08-03T16:20:33.275Z,2.57
2017-08-03T16:23:01.154Z,2.60
2017-08-03T16:25:28.926Z,3.63
2017-08-03T16:27:56.678Z,1.80
2017-08-03T16:30:24.351Z,1.83
2017-08-03T16:32:52.018Z,2.03
2017-08-03T16:35:19.761Z,1.50
2017-08-03T16:37:47.390Z,3.70
2017-08-03T16:40:15.110Z,2.70
2017-08-03T16:42:42.851Z,3.93
2017-08-03T16:45:10.510Z,2.20
2017-08-03T16:47:38.187Z,1.90
2017-08-03T16:50:05.937Z,2.00
2017-08-03T16:52:33.702Z,2.00
2017-08-03T16:55:01.574Z,1.87
2017-08-03T16:57:29.330Z,1.90
2017-08-03T16:59:57.096Z,2.70
2017-08-03T17:02:25.067Z,2.30
2017-08-03T17:04:52.849Z,1.73
2017-08-03T17:07:20.495Z,2.70
2017-08-03T17:09:48.286Z,2.73
2017-08-03T17:12:16.039Z,2.27
2017-08-03T17:14:43.888Z,2.73
2017-08-03T17:17:11.753Z,2.90
2017-08-03T17:19:39.521Z,2.47
2017-08-03T17:22:07.285Z,2.27
2017-08-03T17:24:35.078Z,3.43
2017-08-03T17:27:02.914Z,6.60
2017-08-03T17:29:30.683Z,4.20
2017-08-03T17:31:58.546Z,2.97
2017-08-03T17:34:26.309Z,2.47
2017-08-03T17:36:53.986Z,4.30
2017-08-03T17:39:21.837Z,3.60
2017-08-03T17:41:49.471Z,2.17
2017-08-03T17:44:17.112Z,4.13
2017-08-03T17:46:44.844Z,3.83
2017-08-03T17:49:12.509Z,2.60
2017-08-03T17:51:40.250Z,3.00
2017-08-03T17:54:08.036Z,4.30
2017-08-03T17:56:35.691Z,3.10
2017-08-03T17:59:03.439Z,2.50
2017-08-03T18:01:31.310Z,3.40
2017-08-03T18:03:59.075Z,2.60
2017-08-03T18:06:26.835Z,2.57
2017-08-03T18:08:54.598Z,3.00
2017-08-03T18:11:22.363Z,5.37
2017-08-03T18:13:50.044Z,5.00
2017-08-03T18:16:17.824Z,2.63
2017-08-03T18:18:46.373Z,2.60
2017-08-03T18:21:14.138Z,3.30
2017-08-03T18:23:42.003Z,3.80
2017-08-03T18:26:09.767Z,5.87
2017-08-03T18:28:37.400Z,3.17
2017-08-03T18:31:05.194Z,2.10
2017-08-03T18:33:32.883Z,8.90
2017-08-03T18:36:01.354Z,3.50
2017-08-03T18:38:29.204Z,5.50
2017-08-03T18:40:56.883Z,5.50
2017-08-03T18:43:24.653Z,2.13
2017-08-03T18:45:52.430Z,2.40
2017-08-03T18:48:20.979Z,4.43
2017-08-03T18:50:48.641Z,5.23
2017-08-03T18:53:16.405Z,2.13
2017-08-03T18:55:44.172Z,5.40
2017-08-03T18:58:11.847Z,6.37
2017-08-03T19:00:39.696Z,6.67
2017-08-03T19:03:07.576Z,4.67
2017-08-03T19:05:35.468Z,7.00
2017-08-03T19:08:04.013Z,3.23
2017-08-03T19:10:31.777Z,6.30
2017-08-03T19:12:59.648Z,3.00
2017-08-03T19:15:27.511Z,4.20
2017-08-03T19:17:55.172Z,5.43
2017-08-03T19:20:22.806Z,5.47
2017-08-03T19:22:50.521Z,6.07
2017-08-03T19:25:18.181Z,5.90
2017-08-03T19:27:45.840Z,2.80
2017-08-03T19:30:13.689Z,4.77
2017-08-03T19:32:41.325Z,9.23
2017-08-03T19:35:09.032Z,3.03
2017-08-03T19:37:36.876Z,2.13
2017-08-03T19:40:04.641Z,4.77
2017-08-03T19:42:32.406Z,5.93
2017-08-03T19:45:00.278Z,7.17
2017-08-03T19:47:28.037Z,3.40
2017-08-03T19:49:55.801Z,3.17
2017-08-03T19:52:23.563Z,6.90
2017-08-03T19:54:51.332Z,3.67
2017-08-03T19:57:18.963Z,4.50
2017-08-03T19:59:46.677Z,2.53
2017-08-03T20:02:14.331Z,3.50
2017-08-03T20:04:42.079Z,10.43
2017-08-03T20:07:18.652Z,2.90
2017-08-03T20:09:58.394Z,5.70
2017-08-03T20:12:26.264Z,8.97
2017-08-03T20:14:53.943Z,7.90
2017-08-03T20:17:21.689Z,9.23
2017-08-03T20:19:49.454Z,9.83
2017-08-03T20:22:17.128Z,4.73
2017-08-03T20:24:44.880Z,3.57
2017-08-03T20:27:12.750Z,7.20
2017-08-03T20:29:40.507Z,4.07
2017-08-03T20:32:08.283Z,7.93
2017-08-03T20:34:35.956Z,3.90
2017-08-03T20:37:03.701Z,4.33
2017-08-03T20:39:31.465Z,3.70
2017-08-03T20:41:59.253Z,6.10
2017-08-03T20:44:27.111Z,5.40
2017-08-03T20:46:54.981Z,7.03
2017-08-03T20:49:22.957Z,3.53
2017-08-03T20:51:50.819Z,3.00
2017-08-03T20:54:18.498Z,4.00
2017-08-03T20:56:46.941Z,3.33
2017-08-03T20:59:14.708Z,4.60
2017-08-03T21:01:42.471Z,3.87
2017-08-03T21:04:10.348Z,7.70
2017-08-03T21:06:38.859Z,5.83
2017-08-03T21:09:07.407Z,4.63
2017-08-03T21:11:35.196Z,3.30
2017-08-03T21:14:03.852Z,5.50
2017-08-03T21:16:31.613Z,3.77
2017-08-03T21:18:59.291Z,6.87
2017-08-03T21:21:27.238Z,4.10
2017-08-03T21:23:54.928Z,4.67
2017-08-03T21:26:23.320Z,6.97
2017-08-03T21:28:51.177Z,3.60
2017-08-03T21:31:18.919Z,5.87
2017-08-03T21:33:46.562Z,5.60
2017-08-03T21:36:14.460Z,3.83
2017-08-03T21:38:42.433Z,10.20
2017-08-03T21:41:10.765Z,4.77
2017-08-03T21:43:38.485Z,2.83
2017-08-03T21:46:06.223Z,9.07
2017-08-03T21:48:33.880Z,2.43
2017-08-03T21:51:01.572Z,7.03
2017-08-03T21:53:29.413Z,4.40
2017-08-03T21:55:57.173Z,5.30
2017-08-03T21:58:24.938Z,3.70
2017-08-03T22:01:04.584Z,4.60
2017-08-03T22:03:32.270Z,4.80
2017-08-03T22:06:00.830Z,4.13
2017-08-03T22:08:28.695Z,5.37
2017-08-03T22:10:56.370Z,3.50
2017-08-03T22:13:24.120Z,3.70
2017-08-03T22:15:51.821Z,9.90
2017-08-03T22:18:20.235Z,4.23
2017-08-03T22:20:47.868Z,3.80
2017-08-03T22:23:16.337Z,5.17
2017-08-03T22:25:44.784Z,3.00
2017-08-03T22:28:12.548Z,2.97
2017-08-03T22:30:40.406Z,5.70
2017-08-03T22:33:08.101Z,7.87
2017-08-03T22:35:35.941Z,2.00
2017-08-03T22:38:03.809Z,4.67
2017-08-03T22:40:31.623Z,3.33
2017-08-03T22:42:59.439Z,6.60
2017-08-03T22:45:27.305Z,4.93
2017-08-03T22:47:55.073Z,4.10
2017-08-03T22:50:22.701Z,5.30
2017-08-03T22:52:50.499Z,6.40
2017-08-03T22:55:18.162Z,6.30
2017-08-03T22:57:45.878Z,5.97
2017-08-03T23:00:13.690Z,3.77
2017-08-03T23:02:41.453Z,7.03
2017-08-03T23:05:09.219Z,4.27
2017-08-03T23:07:37.088Z,10.43
2017-08-03T23:10:04.848Z,5.10
2017-08-03T23:12:32.613Z,1.87
2017-08-03T23:15:00.478Z,5.90
2017-08-03T23:17:28.242Z,3.07
2017-08-03T23:19:56.010Z,5.63
2017-08-03T23:22:23.800Z,10.70
2017-08-03T23:24:51.459Z,3.40
2017-08-03T23:27:19.089Z,4.27
2017-08-03T23:29:46.781Z,6.67
2017-08-03T23:32:14.402Z,5.00
2017-08-03T23:34:42.185Z,4.40
2017-08-03T23:37:09.852Z,2.80
2017-08-03T23:39:37.612Z,7.93
2017-08-03T23:42:05.375Z,8.53
2017-08-03T23:44:33.038Z,5.60
2017-08-03T23:47:00.802Z,3.43
2017-08-03T23:49:28.479Z,6.87
2017-08-03T23:51:56.329Z,4.07
2017-08-03T23:54:24.094Z,2.60
2017-08-03T23:56:51.733Z,4.53
2017-08-03T23:59:19.520Z,5.03
